createdAt,value
2023-04-11T00:00:06.677Z,87.28
2023-04-11T00:03:03.441Z,87.80
2023-04-11T00:05:35.633Z,87.33
2023-04-11T00:08:07.409Z,87.43
2023-04-11T00:10:39.395Z,87.55
2023-04-11T00:13:11.154Z,88.21
2023-04-11T00:15:43.116Z,88.11
2023-04-11T00:18:14.923Z,87.82
2023-04-11T00:20:46.745Z,88.02
2023-04-11T00:23:18.497Z,88.58
2023-04-11T00:25:50.904Z,89.09
2023-04-11T00:28:22.672Z,89.04
2023-04-11T00:30:54.438Z,89.11
2023-04-11T00:33:26.453Z,90.07
2023-04-11T00:35:57.371Z,90.62
2023-04-11T00:38:29.229Z,90.70
2023-04-11T00:41:01.743Z,90.83
2023-04-11T00:43:33.776Z,90.91
2023-04-11T00:46:06.399Z,90.79
2023-04-11T00:48:38.364Z,90.83
2023-04-11T00:51:10.472Z,91.21
2023-04-11T00:53:43.309Z,91.39
2023-04-11T00:56:15.460Z,91.75
2023-04-11T00:58:48.898Z,91.60
2023-04-11T01:01:25.023Z,91.93
2023-04-11T01:04:00.867Z,92.04
2023-04-11T01:06:34.241Z,91.33
2023-04-11T01:09:06.257Z,91.94
2023-04-11T01:11:38.379Z,92.23
2023-04-11T01:14:10.275Z,92.36
2023-04-11T01:16:43.798Z,92.86
2023-04-11T01:19:19.254Z,92.61
2023-04-11T01:21:53.372Z,93.51
2023-04-11T01:24:25.229Z,93.61
2023-04-11T01:26:58.103Z,92.95
2023-04-11T01:29:30.198Z,92.22
2023-04-11T01:32:01.940Z,92.18
2023-04-11T01:34:36.941Z,92.86
2023-04-11T01:37:09.072Z,92.85
2023-04-11T01:39:41.029Z,93.19
2023-04-11T01:42:13.836Z,93.84
2023-04-11T01:44:46.169Z,93.72
2023-04-11T01:47:18.105Z,93.72
2023-04-11T01:49:51.066Z,93.67
2023-04-11T01:52:22.878Z,93.71
2023-04-11T01:54:54.671Z,93.47
2023-04-11T01:57:27.177Z,93.43
2023-04-11T01:59:59.036Z,94.40
2023-04-11T02:02:30.920Z,94.84
2023-04-11T02:05:03.538Z,94.77
2023-04-11T02:07:35.301Z,94.41
2023-04-11T02:10:09.797Z,93.39
2023-04-11T02:12:41.645Z,92.57
2023-04-11T02:15:13.857Z,92.60
2023-04-11T02:17:46.558Z,93.05
2023-04-11T02:20:18.329Z,93.06
2023-04-11T02:22:50.208Z,92.57
2023-04-11T02:25:22.007Z,92.71
2023-04-11T02:27:53.806Z,92.94
2023-04-11T02:30:27.634Z,92.95
2023-04-11T02:32:59.514Z,93.28
2023-04-11T02:35:31.339Z,92.38
2023-04-11T02:38:05.175Z,92.00
2023-04-11T02:40:37.003Z,92.45
2023-04-11T02:43:08.949Z,92.48
2023-04-11T02:45:41.181Z,92.61
2023-04-11T02:48:13.050Z,92.57
2023-04-11T02:50:48.310Z,92.74
2023-04-11T02:53:20.158Z,92.42
2023-04-11T02:55:53.420Z,92.39
2023-04-11T02:58:25.914Z,92.37
2023-04-11T03:00:58.776Z,92.48
2023-04-11T03:03:31.453Z,92.72
2023-04-11T03:06:03.434Z,93.09
2023-04-11T03:08:36.119Z,93.11
2023-04-11T03:11:07.262Z,93.00
2023-04-11T03:13:39.378Z,93.19
2023-04-11T03:16:13.583Z,93.15
2023-04-11T03:18:45.932Z,92.73
2023-04-11T03:21:18.206Z,92.37
2023-04-11T03:23:50.333Z,91.98
2023-04-11T03:26:27.032Z,91.77
2023-04-11T03:29:00.225Z,91.86
2023-04-11T03:31:34.296Z,91.99
2023-04-11T03:34:07.428Z,91.43
2023-04-11T03:36:39.218Z,91.30
2023-04-11T03:39:12.070Z,90.95
2023-04-11T03:41:44.243Z,91.12
2023-04-11T03:44:16.526Z,91.29
2023-04-11T03:46:48.874Z,91.44
2023-04-11T03:49:21.160Z,91.23
2023-04-11T03:51:56.873Z,91.03
2023-04-11T03:54:29.106Z,91.07
2023-04-11T03:57:01.166Z,91.07
2023-04-11T03:59:32.361Z,91.11
2023-04-11T04:02:08.578Z,90.75
2023-04-11T04:04:47.050Z,91.05
2023-04-11T04:07:29.328Z,91.12
2023-04-11T04:10:10.803Z,90.82
2023-04-11T04:12:43.160Z,90.79
2023-04-11T04:15:25.396Z,91.37
2023-04-11T04:17:58.596Z,91.96
2023-04-11T04:20:45.751Z,91.53
2023-04-11T04:23:18.023Z,91.03
2023-04-11T04:26:16.336Z,90.58
2023-04-11T04:28:51.062Z,90.20
2023-04-11T04:31:33.710Z,90.48
2023-04-11T04:34:10.319Z,90.80
2023-04-11T04:36:47.796Z,91.23
2023-04-11T04:39:22.236Z,90.99
2023-04-11T04:41:58.985Z,91.55
2023-04-11T04:44:35.088Z,91.43
2023-04-11T04:47:10.295Z,91.68
2023-04-11T04:49:42.110Z,91.70
2023-04-11T04:52:14.709Z,91.23
2023-04-11T04:54:45.019Z,90.79
2023-04-11T04:57:17.052Z,90.70
2023-04-11T04:59:49.489Z,90.03
2023-04-11T05:02:21.855Z,89.81
2023-04-11T05:04:54.483Z,90.43
2023-04-11T05:07:26.604Z,90.86
2023-04-11T05:09:58.605Z,90.98
2023-04-11T05:12:30.554Z,91.00
2023-04-11T05:15:11.411Z,90.69
2023-04-11T05:17:43.644Z,90.37
2023-04-11T05:20:16.708Z,90.62
2023-04-11T05:22:50.931Z,90.44
2023-04-11T05:25:23.105Z,90.56
2023-04-11T05:27:55.993Z,90.82
2023-04-11T05:30:29.297Z,91.47
2023-04-11T05:33:01.351Z,91.97
2023-04-11T05:35:33.376Z,91.76
2023-04-11T05:38:05.354Z,91.90
2023-04-11T05:40:37.751Z,91.74
2023-04-11T05:43:13.487Z,91.46
2023-04-11T05:45:47.769Z,91.22
2023-04-11T05:48:21.351Z,91.65
2023-04-11T05:50:53.724Z,91.01
2023-04-11T05:53:25.692Z,91.50
2023-04-11T05:55:58.070Z,91.00
2023-04-11T05:58:31.638Z,90.50
2023-04-11T06:01:03.383Z,90.45
2023-04-11T06:03:35.443Z,90.34
2023-04-11T06:06:08.768Z,90.02
2023-04-11T06:08:40.911Z,89.79
2023-04-11T06:11:13.003Z,89.11
2023-04-11T06:13:45.021Z,88.50
2023-04-11T06:16:16.965Z,88.44
2023-04-11T06:18:49.197Z,88.20
2023-04-11T06:21:21.403Z,88.05
2023-04-11T06:23:53.179Z,87.74
2023-04-11T06:26:24.958Z,87.52
2023-04-11T06:28:56.849Z,87.34
2023-04-11T06:31:28.815Z,87.21
2023-04-11T06:34:01.269Z,87.69
2023-04-11T06:36:33.483Z,87.50
2023-04-11T06:39:05.792Z,87.68
2023-04-11T06:41:37.534Z,87.03
2023-04-11T06:44:09.657Z,87.04
2023-04-11T06:46:41.536Z,87.46
2023-04-11T06:49:17.779Z,87.48
2023-04-11T06:51:50.230Z,87.07
2023-04-11T06:54:21.336Z,87.22
2023-04-11T06:56:53.477Z,86.88
2023-04-11T06:59:25.835Z,86.63
2023-04-11T07:01:58.727Z,86.71
2023-04-11T07:04:30.956Z,86.60
2023-04-11T07:07:04.507Z,86.55
2023-04-11T07:09:37.291Z,86.13
2023-04-11T07:12:09.491Z,85.91
2023-04-11T07:14:41.527Z,85.69
2023-04-11T07:17:13.513Z,85.61
2023-04-11T07:19:46.693Z,85.43
2023-04-11T07:22:18.551Z,85.45
2023-04-11T07:24:55.158Z,85.10
2023-04-11T07:27:27.038Z,84.74
2023-04-11T07:29:59.117Z,84.27
2023-04-11T07:32:31.018Z,84.11
2023-04-11T07:35:02.956Z,83.91
2023-04-11T07:37:35.617Z,83.55
2023-04-11T07:40:11.830Z,83.21
2023-04-11T07:42:43.714Z,83.11
2023-04-11T07:45:15.579Z,82.67
2023-04-11T07:47:47.540Z,82.39
2023-04-11T07:50:19.818Z,82.16
2023-04-11T07:52:51.856Z,81.59
2023-04-11T07:55:23.603Z,81.83
2023-04-11T07:57:55.686Z,82.26
2023-04-11T08:00:28.709Z,82.25
2023-04-11T08:03:03.175Z,82.03
2023-04-11T08:05:36.953Z,82.20
2023-04-11T08:08:09.092Z,81.94
2023-04-11T08:10:41.068Z,81.07
2023-04-11T08:13:12.959Z,80.69
2023-04-11T08:15:44.792Z,80.23
2023-04-11T08:18:21.435Z,80.12
2023-04-11T08:20:53.704Z,79.63
2023-04-11T08:23:25.623Z,79.13
2023-04-11T08:25:57.962Z,78.98
2023-04-11T08:28:30.081Z,78.70
2023-04-11T08:31:04.091Z,78.54
2023-04-11T08:33:36.215Z,78.33
2023-04-11T08:36:10.370Z,77.61
2023-04-11T08:38:43.189Z,76.73
2023-04-11T08:41:15.470Z,76.66
2023-04-11T08:43:48.048Z,76.12
2023-04-11T08:46:20.045Z,75.25
2023-04-11T08:48:52.253Z,73.80
2023-04-11T08:51:26.960Z,73.56
2023-04-11T08:54:05.392Z,73.37
2023-04-11T08:56:38.277Z,73.21
2023-04-11T08:59:10.207Z,72.37
2023-04-11T09:01:42.294Z,72.09
2023-04-11T09:04:13.307Z,71.53
2023-04-11T09:07:00.996Z,71.44
2023-04-11T09:09:34.006Z,71.63
2023-04-11T09:12:04.695Z,71.64
2023-04-11T09:14:36.594Z,71.71
2023-04-11T09:17:13.441Z,71.40
2023-04-11T09:19:48.329Z,71.08
2023-04-11T09:22:21.668Z,70.79
2023-04-11T09:25:04.542Z,70.52
2023-04-11T09:27:34.858Z,70.35
2023-04-11T09:30:19.236Z,70.32
2023-04-11T09:32:53.279Z,70.03
2023-04-11T09:35:28.507Z,69.68
2023-04-11T09:38:03.438Z,69.60
2023-04-11T09:40:44.256Z,69.43
2023-04-11T09:43:16.054Z,69.18
2023-04-11T09:45:54.524Z,69.18
2023-04-11T09:48:39.511Z,69.11
2023-04-11T09:51:28.152Z,69.00
2023-04-11T09:54:08.382Z,68.48
2023-04-11T09:56:40.464Z,68.42
2023-04-11T09:59:13.196Z,67.78
2023-04-11T10:01:43.641Z,66.89
2023-04-11T10:04:16.415Z,66.54
2023-04-11T10:06:51.439Z,66.60
2023-04-11T10:09:23.670Z,65.74
2023-04-11T10:11:55.974Z,64.81
2023-04-11T10:14:47.037Z,63.77
2023-04-11T10:17:22.889Z,63.79
2023-04-11T10:19:58.397Z,64.15
2023-04-11T10:23:02.654Z,62.90
2023-04-11T10:25:48.990Z,63.04
2023-04-11T10:28:35.118Z,63.32
2023-04-11T10:31:10.038Z,63.23
2023-04-11T10:34:02.976Z,62.80
2023-04-11T10:37:04.962Z,63.22
2023-04-11T10:40:09.918Z,63.01
2023-04-11T10:42:43.175Z,61.94
2023-04-11T10:45:19.995Z,60.80
2023-04-11T10:48:11.792Z,60.76
2023-04-11T10:50:47.001Z,59.84
2023-04-11T10:53:38.470Z,59.72
2023-04-11T10:56:10.703Z,59.69
2023-04-11T10:58:42.712Z,59.96
2023-04-11T11:01:32.330Z,61.16
2023-04-11T11:04:10.997Z,61.77
2023-04-11T11:06:51.044Z,62.17
2023-04-11T11:09:29.091Z,62.95
2023-04-11T11:12:12.461Z,63.57
2023-04-11T11:14:46.031Z,64.09
2023-04-11T11:17:19.651Z,64.35
2023-04-11T11:19:52.237Z,64.98
2023-04-11T11:22:26.366Z,65.82
2023-04-11T11:25:10.368Z,66.35
2023-04-11T11:27:42.333Z,66.65
2023-04-11T11:30:16.306Z,67.85
2023-04-11T11:32:48.287Z,68.77
2023-04-11T11:35:20.724Z,69.72
2023-04-11T11:37:54.109Z,70.63
2023-04-11T11:40:26.124Z,71.30
2023-04-11T11:42:58.117Z,71.98
2023-04-11T11:45:30.126Z,72.65
2023-04-11T11:48:02.235Z,73.19
2023-04-11T11:50:34.233Z,73.21
2023-04-11T11:53:16.755Z,73.30
2023-04-11T11:55:48.735Z,73.56
2023-04-11T11:58:21.360Z,73.82
2023-04-11T12:00:53.974Z,74.17
2023-04-11T12:03:29.959Z,74.82
2023-04-11T12:06:02.274Z,75.04
2023-04-11T12:08:41.563Z,75.36
2023-04-11T12:11:16.101Z,75.42
2023-04-11T12:13:52.835Z,75.31
2023-04-11T12:16:25.608Z,75.08
2023-04-11T12:19:01.001Z,75.12
2023-04-11T12:21:36.710Z,75.58
2023-04-11T12:24:10.580Z,75.94
2023-04-11T12:26:52.974Z,77.08
2023-04-11T12:29:36.185Z,78.88
2023-04-11T12:32:08.840Z,81.97
2023-04-11T12:34:39.177Z,84.44
2023-04-11T12:37:11.015Z,87.35
2023-04-11T12:39:43.013Z,89.51
2023-04-11T12:42:16.679Z,92.34
2023-04-11T12:44:50.834Z,93.48
2023-04-11T12:47:22.777Z,95.24
2023-04-11T12:49:54.716Z,95.78
2023-04-11T12:52:26.924Z,96.67
2023-04-11T12:54:59.071Z,97.06
2023-04-11T12:57:31.211Z,97.48
2023-04-11T13:00:07.019Z,98.06
2023-04-11T13:02:44.047Z,98.24
2023-04-11T13:05:17.645Z,98.38
2023-04-11T13:07:49.719Z,99.77
2023-04-11T13:10:21.691Z,99.85
2023-04-11T13:12:58.585Z,100.00
2023-04-11T13:15:33.055Z,100.00
2023-04-11T13:18:05.494Z,100.00
2023-04-11T13:20:37.471Z,100.00
2023-04-11T13:23:10.505Z,100.00
2023-04-11T13:25:43.329Z,100.00
2023-04-11T13:28:15.556Z,100.00
2023-04-11T13:30:47.446Z,100.00
2023-04-11T13:33:19.249Z,100.00
2023-04-11T13:35:51.096Z,100.00
2023-04-11T13:38:22.921Z,100.00
2023-04-11T13:40:55.492Z,100.00
2023-04-11T13:43:30.115Z,100.00
2023-04-11T13:46:04.256Z,100.00
2023-04-11T13:48:37.681Z,100.00
2023-04-11T13:51:10.345Z,100.00
2023-04-11T13:53:42.326Z,99.90
2023-04-11T13:56:14.400Z,99.91
2023-04-11T13:58:46.466Z,98.87
2023-04-11T14:01:20.170Z,96.71
2023-04-11T14:03:52.785Z,96.08
2023-04-11T14:06:24.685Z,96.72
2023-04-11T14:08:56.702Z,97.52
2023-04-11T14:11:28.539Z,98.14
2023-04-11T14:14:00.379Z,99.05
2023-04-11T14:16:32.384Z,98.91
2023-04-11T14:19:04.642Z,98.21
2023-04-11T14:21:36.880Z,97.73
2023-04-11T14:24:09.538Z,98.53
2023-04-11T14:26:41.795Z,98.26
2023-04-11T14:29:13.773Z,96.95
2023-04-11T14:31:46.219Z,96.22
2023-04-11T14:34:18.735Z,95.59
2023-04-11T14:36:51.127Z,94.97
2023-04-11T14:39:23.870Z,95.14
2023-04-11T14:41:54.646Z,95.48
2023-04-11T14:44:28.034Z,96.96
2023-04-11T14:47:00.687Z,97.83
2023-04-11T14:49:33.081Z,98.39
2023-04-11T14:52:05.446Z,99.34
2023-04-11T14:54:37.485Z,100.00
2023-04-11T14:57:09.634Z,99.77
2023-04-11T14:59:42.823Z,98.94
2023-04-11T15:02:15.441Z,98.60
2023-04-11T15:04:45.880Z,98.68
2023-04-11T15:07:17.861Z,99.53
2023-04-11T15:09:49.949Z,99.40
2023-04-11T15:12:21.791Z,97.73
2023-04-11T15:14:53.636Z,96.64
2023-04-11T15:17:25.569Z,96.96
2023-04-11T15:19:57.798Z,95.61
2023-04-11T15:22:29.653Z,95.70
2023-04-11T15:25:01.510Z,95.63
2023-04-11T15:27:34.200Z,94.45
2023-04-11T15:30:07.628Z,95.98
2023-04-11T15:32:44.628Z,96.07
2023-04-11T15:35:16.739Z,95.58
2023-04-11T15:37:51.627Z,95.66
2023-04-11T15:40:23.624Z,96.38
2023-04-11T15:42:55.580Z,96.11
2023-04-11T15:45:30.738Z,96.93
2023-04-11T15:48:03.161Z,96.98
2023-04-11T15:50:35.577Z,95.48
2023-04-11T15:53:07.530Z,96.09
2023-04-11T15:55:41.918Z,96.23
2023-04-11T15:58:14.338Z,96.89
2023-04-11T16:00:46.986Z,96.52
2023-04-11T16:03:17.982Z,96.88
2023-04-11T16:05:52.973Z,98.24
2023-04-11T16:08:26.117Z,98.55
2023-04-11T16:10:57.906Z,98.23
2023-04-11T16:13:29.860Z,97.33
2023-04-11T16:16:02.067Z,97.53
2023-04-11T16:18:34.136Z,98.91
2023-04-11T16:21:12.631Z,97.93
2023-04-11T16:23:44.712Z,98.10
2023-04-11T16:26:17.056Z,97.26
2023-04-11T16:28:49.651Z,96.86
2023-04-11T16:31:25.085Z,97.52
2023-04-11T16:33:57.417Z,96.84
2023-04-11T16:36:29.842Z,96.57
2023-04-11T16:39:01.662Z,95.99
2023-04-11T16:41:36.302Z,96.40
2023-04-11T16:44:11.468Z,97.90
2023-04-11T16:46:44.292Z,97.41
2023-04-11T16:49:16.486Z,97.74
2023-04-11T16:51:48.711Z,97.91
2023-04-11T16:54:21.015Z,97.39
2023-04-11T16:56:53.090Z,97.75
2023-04-11T16:59:25.370Z,97.06
2023-04-11T17:01:57.606Z,97.37
2023-04-11T17:04:29.908Z,97.72
2023-04-11T17:07:02.231Z,98.39
2023-04-11T17:09:34.439Z,98.95
2023-04-11T17:12:07.056Z,98.07
2023-04-11T17:14:38.733Z,99.56
2023-04-11T17:17:10.824Z,99.02
2023-04-11T17:19:43.159Z,97.29
2023-04-11T17:22:15.481Z,96.94
2023-04-11T17:24:47.200Z,97.92
2023-04-11T17:27:19.038Z,97.37
2023-04-11T17:29:50.784Z,96.97
2023-04-11T17:32:23.301Z,96.94
2023-04-11T17:34:55.859Z,96.83
2023-04-11T17:37:28.470Z,95.90
2023-04-11T17:40:00.393Z,95.40
2023-04-11T17:42:32.918Z,95.19
2023-04-11T17:45:17.915Z,95.27
2023-04-11T17:47:51.186Z,95.72
2023-04-11T17:50:23.861Z,95.20
2023-04-11T17:52:56.446Z,94.79
2023-04-11T17:55:27.218Z,94.63
2023-04-11T17:57:59.371Z,94.28
2023-04-11T18:00:31.925Z,94.08
2023-04-11T18:03:05.850Z,94.86
2023-04-11T18:05:38.944Z,95.46
2023-04-11T18:08:13.049Z,95.00
2023-04-11T18:10:45.918Z,94.55
2023-04-11T18:13:20.914Z,93.46
2023-04-11T18:15:52.904Z,93.57
2023-04-11T18:18:25.033Z,93.46
2023-04-11T18:21:04.787Z,93.44
2023-04-11T18:23:39.340Z,92.86
2023-04-11T18:26:11.580Z,92.67
2023-04-11T18:28:43.682Z,92.34
2023-04-11T18:31:16.393Z,92.14
2023-04-11T18:33:48.705Z,92.12
2023-04-11T18:36:21.554Z,92.45
2023-04-11T18:38:53.915Z,92.09
2023-04-11T18:41:26.161Z,92.39
2023-04-11T18:43:58.971Z,92.46
2023-04-11T18:46:33.053Z,92.26
2023-04-11T18:49:07.432Z,93.26
2023-04-11T18:51:40.002Z,94.37
2023-04-11T18:54:11.839Z,94.75
2023-04-11T18:56:46.389Z,95.02
2023-04-11T18:59:23.926Z,95.59
2023-04-11T19:01:57.205Z,96.04
2023-04-11T19:04:29.395Z,96.08
2023-04-11T19:07:03.147Z,96.10
2023-04-11T19:09:35.436Z,96.52
2023-04-11T19:12:07.931Z,96.65
2023-04-11T19:14:39.762Z,96.91
2023-04-11T19:17:12.305Z,97.38
2023-04-11T19:19:44.256Z,97.83
2023-04-11T19:22:16.544Z,98.13
2023-04-11T19:24:48.945Z,98.34
2023-04-11T19:27:22.526Z,98.61
2023-04-11T19:29:54.773Z,99.17
2023-04-11T19:32:27.276Z,99.16
2023-04-11T19:34:59.684Z,99.00
2023-04-11T19:37:33.134Z,98.91
2023-04-11T19:40:07.390Z,98.75
2023-04-11T19:42:40.288Z,98.98
2023-04-11T19:45:13.236Z,98.44
2023-04-11T19:47:46.157Z,98.60
2023-04-11T19:50:18.452Z,99.09
2023-04-11T19:52:50.858Z,99.06
2023-04-11T19:55:23.596Z,99.29
2023-04-11T19:57:55.527Z,99.48
2023-04-11T20:00:31.824Z,99.79
2023-04-11T20:03:05.950Z,99.76
2023-04-11T20:05:38.249Z,99.67
2023-04-11T20:08:10.463Z,99.96
2023-04-11T20:10:42.815Z,100.00
2023-04-11T20:13:15.993Z,100.00
2023-04-11T20:15:48.031Z,100.00
2023-04-11T20:18:19.853Z,100.00
2023-04-11T20:20:52.314Z,100.00
2023-04-11T20:23:24.713Z,100.00
2023-04-11T20:25:56.830Z,100.00
2023-04-11T20:28:30.351Z,100.00
2023-04-11T20:31:04.465Z,100.00
2023-04-11T20:33:37.148Z,100.00
2023-04-11T20:36:11.145Z,100.00
2023-04-11T20:38:43.463Z,99.97
2023-04-11T20:41:18.909Z,99.53
2023-04-11T20:43:52.155Z,99.49
2023-04-11T20:46:24.634Z,99.83
2023-04-11T20:48:56.599Z,99.94
2023-04-11T20:51:28.606Z,100.00
2023-04-11T20:54:00.532Z,100.00
2023-04-11T20:56:35.187Z,100.00
2023-04-11T20:59:09.106Z,100.00
2023-04-11T21:01:41.581Z,100.00
2023-04-11T21:04:15.442Z,100.00
2023-04-11T21:06:47.410Z,100.00
2023-04-11T21:09:19.496Z,100.00
2023-04-11T21:11:51.266Z,100.00
2023-04-11T21:14:22.977Z,100.00
2023-04-11T21:16:54.807Z,100.00
2023-04-11T21:19:26.661Z,100.00
2023-04-11T21:21:58.572Z,100.00
2023-04-11T21:24:32.564Z,99.87
2023-04-11T21:27:04.606Z,99.83
2023-04-11T21:29:36.450Z,99.64
2023-04-11T21:32:08.469Z,99.55
2023-04-11T21:34:40.299Z,99.47
2023-04-11T21:37:12.200Z,99.13
2023-04-11T21:39:44.025Z,99.32
2023-04-11T21:42:15.914Z,99.15
2023-04-11T21:44:47.675Z,99.60
2023-04-11T21:47:19.552Z,99.88
2023-04-11T21:49:51.451Z,99.95
2023-04-11T21:52:23.216Z,100.00
2023-04-11T21:54:54.945Z,99.95
2023-04-11T21:57:27.228Z,99.99
2023-04-11T21:59:59.038Z,100.00
2023-04-11T22:02:31.240Z,100.00
2023-04-11T22:05:06.983Z,100.00
2023-04-11T22:07:47.413Z,100.00
2023-04-11T22:10:30.356Z,99.97
2023-04-11T22:13:06.884Z,99.48
2023-04-11T22:15:40.033Z,99.47
2023-04-11T22:18:13.254Z,99.64
2023-04-11T22:20:46.169Z,99.33
2023-04-11T22:23:18.798Z,99.53
2023-04-11T22:25:59.356Z,99.48
2023-04-11T22:28:31.236Z,99.48
2023-04-11T22:31:04.825Z,99.50
2023-04-11T22:33:36.922Z,99.61
2023-04-11T22:36:11.721Z,99.78
2023-04-11T22:38:44.732Z,99.93
2023-04-11T22:41:19.938Z,99.67
2023-04-11T22:43:51.831Z,99.56
2023-04-11T22:46:23.909Z,99.42
2023-04-11T22:48:57.886Z,99.22
2023-04-11T22:51:30.237Z,99.05
2023-04-11T22:54:02.313Z,98.99
2023-04-11T22:56:34.610Z,98.92
2023-04-11T22:59:06.783Z,98.91
2023-04-11T23:01:38.725Z,99.09
2023-04-11T23:04:10.608Z,99.25
2023-04-11T23:06:42.751Z,99.42
2023-04-11T23:09:15.040Z,99.44
2023-04-11T23:11:48.795Z,99.53
2023-04-11T23:14:21.339Z,99.56
2023-04-11T23:16:53.188Z,99.24
2023-04-11T23:19:25.381Z,99.49
2023-04-11T23:21:57.128Z,99.31
2023-04-11T23:24:28.930Z,99.26
2023-04-11T23:27:00.835Z,98.83
2023-04-11T23:29:33.188Z,99.30
2023-04-11T23:32:05.090Z,99.11
2023-04-11T23:34:36.899Z,99.16
2023-04-11T23:37:09.111Z,99.23
2023-04-11T23:39:40.988Z,99.36
2023-04-11T23:42:13.360Z,99.09
2023-04-11T23:44:45.085Z,99.30
2023-04-11T23:47:16.896Z,99.18
2023-04-11T23:49:50.160Z,99.31
2023-04-11T23:52:22.409Z,99.35
2023-04-11T23:54:54.619Z,99.56
2023-04-11T23:57:26.982Z,99.72
2023-04-11T23:59:58.702Z,99.82
